Monday, December 5, 2016, 11:33 AM EST

KIPT, Williamsport-lycoming County

Location: Montoursville, PA, United States Lat: 41.25
Local Time: 11:33 AM EST (16:33 GMT) Lon: -76.917
Time Zone: US/Eastern Elev: 528 ft

Show me the last for .
Show Decoded

2016-12-05 11:06 METAR KIPT 051606Z 00000KT 10SM SCT009 OVC041 06/03 A2997 RMK AO2 T00610033 $ =
2016-12-05 10:54 METAR KIPT 051554Z 00000KT 10SM BKN008 OVC043 06/03 A2998 RMK AO2 SLP154
                 T00560028 =
2016-12-05 09:54 METAR KIPT 051454Z 00000KT 10SM OVC008 04/03 A2998 RMK AO2 CIG 006V010 SLP155
                 60000 T00390028 51011 =
2016-12-05 08:54 METAR KIPT 051354Z 00000KT 10SM OVC008 03/03 A2997 RMK AO2 RAE04B20E51 SLP152
                 P0000 T00280028 =
2016-12-05 08:24 METAR KIPT 051324Z 00000KT 10SM -RA BKN008 OVC015 03/02 A2996 RMK AO2 RAE04B20
                 P0000 T00280022 =
2016-12-05 08:15 METAR KIPT 051315Z 00000KT 10SM SCT009 OVC015 03/02 A2996 RMK AO2 RAE04 P0000
                 T00280022 =
2016-12-05 07:54 METAR KIPT 051254Z 35003KT 8SM -RA OVC015 03/02 A2996 RMK AO2 RAB47 SLP148 P0000
                 T00280022 =
2016-12-05 07:36 METAR KIPT 051236Z 02003KT 10SM OVC016 03/02 A2995 RMK AO2 T00280022 =
2016-12-05 07:14 METAR KIPT 051214Z 36004KT 10SM BKN014 OVC020 03/02 A2994 RMK AO2 T00280022 =
2016-12-05 06:54 METAR KIPT 051154Z 00000KT 10SM BKN016 OVC022 03/03 A2994 RMK AO2 RAE47 SLP144
                 P0000 60015 70019 I6000 T00280028 10028 20017 53008 =
2016-12-05 06:06 METAR KIPT 051106Z AUTO 07003KT 10SM -RA SCT012 OVC023 03/02 A2993 =
2016-12-05 05:54 METAR KIPT 051054Z AUTO 00000KT 9SM -RA BKN012 OVC026 03/02 A2992 RMK AO2
                 UPE0955RAB0955 SLP137 P0001 T00280022 TSNO =
2016-12-05 04:54 METAR KIPT 050954Z AUTO 13010G16KT 8SM UP BKN011 OVC021 02/02 A2992 RMK AO2
                 RAE07B26E54UPB54 SLP134 P0000 T00220017 =
2016-12-05 03:54 METAR KIPT 050854Z AUTO 10009KT 050V120 6SM -RA BR OVC012 02/01 A2992 RMK AO2
                 RAB0758E00B21SNE21B32E47 SLP135 P0001 60014 I3000 T00220011 58009 =
2016-12-05 03:23 METAR KIPT 050823Z AUTO 06012G19KT 5SM -RA BR BKN012 OVC020 02/01 A2992 RMK AO2
                 RAB0758E00B21SNE21 P0001 T00220006 =
2016-12-05 03:03 METAR KIPT 050803Z AUTO 08010G17KT 4SM -SN BR SCT011 OVC021 02/01 A2993 RMK AO2
                 RAB0758E00 P0001 T00220006 =
2016-12-05 02:54 METAR KIPT 050754Z AUTO 08010KT 4SM -SN BR BKN010 OVC021 02/00 A2993 RMK AO2
                 SLP139 P0006 T00220000 =
2016-12-05 02:51 METAR KIPT 050751Z AUTO 09013KT 4SM -SN BR BKN010 OVC019 02/00 A2994 RMK AO2
                 P0006 =
2016-12-05 02:35 METAR KIPT 050735Z AUTO 08010KT 2SM -SN BR BKN010 OVC015 02/00 A2994 RMK AO2
                 P0005 T00170000 =
2016-12-05 01:54 METAR KIPT 050654Z AUTO 10011G19KT 3SM -SN BR OVC010 02/01 A2995 RMK AO2
                 RAE37SNB37 SLP144 P0007 I1000 T00220006 =
2016-12-05 01:20 METAR KIPT 050620Z AUTO 08010G15KT 3SM RA BR BKN010 OVC017 03/01 A2995 RMK AO2
                 P0003 T00280011 =
2016-12-05 00:54 METAR KIPT 050554Z AUTO 10010KT 4SM -RA OVC020 03/M01 A2996 RMK AO2
                 RAB01SNB26E39 SLP149 P0004 60004 T00281006 10050 20028 56022 =
2016-12-05 00:42 METAR KIPT 050542Z AUTO 07010G17KT 5SM RA OVC024 03/M01 A2997 RMK AO2
                 RAB01SNB26E39 P0002 T00331006 =
2016-12-04 23:54 METAR KIPT 050454Z AUTO 12010G19KT 10SM FEW060 OVC080 05/M03 A2996 RMK AO2
                 SLP148 T00501028 400780033 =
2016-12-04 22:54 METAR KIPT 050354Z AUTO 10010G16KT 070V130 10SM OVC085 05/M04 A2999 =
2016-12-04 21:54 METAR KIPT 050254Z 06012KT 10SM OVC110 04/M04 A3003 RMK AO2 SLP171 T00441044
                 58034 =
2016-12-04 20:54 METAR KIPT 050154Z 08011KT 10SM BKN110 04/M04 A3006 RMK AO2 SLP184 T00441039 =
2016-12-04 19:54 METAR KIPT 050054Z 08008KT 10SM SCT120 04/M03 A3011 RMK AO2 SLP199 T00441033 =
2016-12-04 18:54 METAR KIPT 042354Z 09005KT 10SM CLR 04/M03 A3013 RMK AO2 SLP206 T00441033 10078
                 20033 56010 =
2016-12-04 17:54 METAR KIPT 042254Z 10005KT 10SM CLR 03/M03 A3013 RMK AO2 SLP208 T00331033 =
2016-12-04 16:54 METAR KIPT 042154Z 11006KT 10SM CLR 05/M03 A3015 RMK AO2 SLP212 T00501033 =
2016-12-04 15:54 METAR KIPT 042054Z 00000KT 10SM CLR 07/M03 A3016 RMK AO2 SLP215 T00671033 56015
                 =
2016-12-04 14:54 METAR KIPT 041954Z 00000KT 10SM CLR 07/M05 A3017 RMK AO2 SLP218 T00671050 =
2016-12-04 13:54 METAR KIPT 041854Z 30005KT 10SM CLR 07/M04 A3018 RMK AO2 SLP223 T00721044 =
2016-12-04 12:54 METAR KIPT 041754Z 28003KT 10SM FEW045 07/M04 A3020 RMK AO2 SLP230 T00721044
                 10078 20033 58017 =
2016-12-04 11:54 METAR KIPT 041654Z 32007KT 260V340 10SM BKN045 07/M04 A3023 RMK AO2 SLP240
                 T00671039 =

Support USWX by starting your Amazon purchase here.